sensor_id;sensor_type;location;lat;lon;timestamp;pressure;altitude;pressure_sealevel;temperature;humidity
73003;BME280;61184;54.356;-8.550;2022-09-16T00:02:10;101991.61;;;24.16;32.53
73003;BME280;61184;54.356;-8.550;2022-09-16T00:04:35;101994.78;;;24.18;32.50
73003;BME280;61184;54.356;-8.550;2022-09-16T00:07:01;101999.26;;;24.10;32.57
73003;BME280;61184;54.356;-8.550;2022-09-16T00:09:26;101998.09;;;23.88;32.81
73003;BME280;61184;54.356;-8.550;2022-09-16T00:11:52;102000.67;;;24.16;32.47
73003;BME280;61184;54.356;-8.550;2022-09-16T00:14:17;102000.26;;;24.11;32.56
73003;BME280;61184;54.356;-8.550;2022-09-16T00:16:43;102002.56;;;23.83;32.90
73003;BME280;61184;54.356;-8.550;2022-09-16T00:19:08;101999.78;;;24.00;32.38
73003;BME280;61184;54.356;-8.550;2022-09-16T00:21:34;101994.61;;;23.86;32.85
73003;BME280;61184;54.356;-8.550;2022-09-16T00:23:59;101992.34;;;23.86;32.80
73003;BME280;61184;54.356;-8.550;2022-09-16T00:26:25;101995.01;;;24.06;32.60
73003;BME280;61184;54.356;-8.550;2022-09-16T00:28:50;101994.72;;;23.94;32.73
73003;BME280;61184;54.356;-8.550;2022-09-16T00:31:16;101998.71;;;23.76;32.64
73003;BME280;61184;54.356;-8.550;2022-09-16T00:33:41;101998.62;;;23.95;32.42
73003;BME280;61184;54.356;-8.550;2022-09-16T00:36:08;102000.69;;;24.18;32.41
73003;BME280;61184;54.356;-8.550;2022-09-16T00:38:31;102004.80;;;23.91;32.45
73003;BME280;61184;54.356;-8.550;2022-09-16T00:40:57;102003.90;;;24.07;32.55
73003;BME280;61184;54.356;-8.550;2022-09-16T00:43:23;102004.83;;;24.03;32.65
73003;BME280;61184;54.356;-8.550;2022-09-16T00:45:53;102003.56;;;24.10;32.50
73003;BME280;61184;54.356;-8.550;2022-09-16T00:48:17;102006.81;;;23.75;32.93
73003;BME280;61184;54.356;-8.550;2022-09-16T00:50:42;102009.91;;;24.16;32.39
73003;BME280;61184;54.356;-8.550;2022-09-16T00:53:05;102009.93;;;24.12;32.49
73003;BME280;61184;54.356;-8.550;2022-09-16T00:55:33;102010.83;;;23.95;32.73
73003;BME280;61184;54.356;-8.550;2022-09-16T00:58:01;102012.83;;;23.93;32.67
73003;BME280;61184;54.356;-8.550;2022-09-16T01:00:20;102017.14;;;23.76;32.94
73003;BME280;61184;54.356;-8.550;2022-09-16T01:02:46;102015.27;;;23.67;33.03
73003;BME280;61184;54.356;-8.550;2022-09-16T01:05:14;102018.47;;;23.97;32.67
73003;BME280;61184;54.356;-8.550;2022-09-16T01:07:39;102020.77;;;23.89;32.79
73003;BME280;61184;54.356;-8.550;2022-09-16T01:10:02;102020.96;;;23.99;32.61
73003;BME280;61184;54.356;-8.550;2022-09-16T01:12:28;102022.01;;;23.71;32.94
73003;BME280;61184;54.356;-8.550;2022-09-16T01:14:53;102029.14;;;24.11;32.48
73003;BME280;61184;54.356;-8.550;2022-09-16T01:17:26;102027.47;;;23.80;32.87
73003;BME280;61184;54.356;-8.550;2022-09-16T01:19:59;102026.48;;;23.85;32.82
73003;BME280;61184;54.356;-8.550;2022-09-16T01:22:19;102028.04;;;24.06;32.52
73003;BME280;61184;54.356;-8.550;2022-09-16T01:24:46;102032.76;;;24.12;32.43
73003;BME280;61184;54.356;-8.550;2022-09-16T01:27:13;102034.26;;;23.93;32.70
73003;BME280;61184;54.356;-8.550;2022-09-16T01:29:35;102038.60;;;23.91;32.70
73003;BME280;61184;54.356;-8.550;2022-09-16T01:31:57;102038.41;;;23.86;32.72
73003;BME280;61184;54.356;-8.550;2022-09-16T01:34:23;102039.91;;;23.55;32.81
73003;BME280;61184;54.356;-8.550;2022-09-16T01:36:49;102043.10;;;23.63;33.04
73003;BME280;61184;54.356;-8.550;2022-09-16T01:39:19;102043.26;;;24.09;32.48
73003;BME280;61184;54.356;-8.550;2022-09-16T01:41:41;102043.66;;;23.62;33.02
73003;BME280;61184;54.356;-8.550;2022-09-16T01:44:02;102044.17;;;23.73;32.89
73003;BME280;61184;54.356;-8.550;2022-09-16T01:46:29;102041.56;;;23.83;32.77
73003;BME280;61184;54.356;-8.550;2022-09-16T01:48:53;102042.66;;;23.82;32.79
73003;BME280;61184;54.356;-8.550;2022-09-16T01:51:20;102047.59;;;23.92;32.64
73003;BME280;61184;54.356;-8.550;2022-09-16T01:53:44;102047.45;;;23.77;32.49
73003;BME280;61184;54.356;-8.550;2022-09-16T01:56:09;102046.37;;;23.94;32.60
73003;BME280;61184;54.356;-8.550;2022-09-16T01:58:34;102048.23;;;23.76;32.81
73003;BME280;61184;54.356;-8.550;2022-09-16T02:01:00;102046.90;;;24.03;32.47
73003;BME280;61184;54.356;-8.550;2022-09-16T02:03:24;102045.23;;;23.55;33.05
73003;BME280;61184;54.356;-8.550;2022-09-16T02:05:49;102050.06;;;23.58;32.69
73003;BME280;61184;54.356;-8.550;2022-09-16T02:08:16;102056.80;;;24.10;32.33
73003;BME280;61184;54.356;-8.550;2022-09-16T02:10:40;102055.71;;;23.91;32.56
73003;BME280;61184;54.356;-8.550;2022-09-16T02:13:07;102056.83;;;23.73;32.79
73003;BME280;61184;54.356;-8.550;2022-09-16T02:15:31;102055.51;;;24.09;32.35
73003;BME280;61184;54.356;-8.550;2022-09-16T02:17:59;102050.02;;;23.77;32.74
73003;BME280;61184;54.356;-8.550;2022-09-16T02:20:23;102047.04;;;23.76;32.70
73003;BME280;61184;54.356;-8.550;2022-09-16T02:22:49;102051.67;;;23.93;32.54
73003;BME280;61184;54.356;-8.550;2022-09-16T02:25:12;102050.44;;;23.86;32.64
73003;BME280;61184;54.356;-8.550;2022-09-16T02:27:37;102050.69;;;23.97;32.44
73003;BME280;61184;54.356;-8.550;2022-09-16T02:30:05;102049.70;;;23.92;32.49
73003;BME280;61184;54.356;-8.550;2022-09-16T02:32:28;102060.30;;;23.65;32.83
73003;BME280;61184;54.356;-8.550;2022-09-16T02:34:53;102057.64;;;23.53;32.98
73003;BME280;61184;54.356;-8.550;2022-09-16T02:37:30;102054.47;;;23.26;33.01
73003;BME280;61184;54.356;-8.550;2022-09-16T02:39:46;102054.62;;;23.94;32.75
73003;BME280;61184;54.356;-8.550;2022-09-16T02:42:08;102055.65;;;23.51;32.94
73003;BME280;61184;54.356;-8.550;2022-09-16T02:44:34;102057.69;;;23.79;32.58
73003;BME280;61184;54.356;-8.550;2022-09-16T02:47:03;102062.18;;;23.72;32.69
73003;BME280;61184;54.356;-8.550;2022-09-16T02:49:27;102063.24;;;23.72;32.67
73003;BME280;61184;54.356;-8.550;2022-09-16T02:51:56;102063.12;;;23.96;32.66
73003;BME280;61184;54.356;-8.550;2022-09-16T02:54:20;102064.98;;;23.89;32.45
73003;BME280;61184;54.356;-8.550;2022-09-16T02:56:41;102061.50;;;23.60;32.78
73003;BME280;61184;54.356;-8.550;2022-09-16T02:59:08;102063.70;;;23.61;32.79
73003;BME280;61184;54.356;-8.550;2022-09-16T03:01:36;102063.99;;;23.62;32.77
73003;BME280;61184;54.356;-8.550;2022-09-16T03:03:57;102061.20;;;23.66;32.67
73003;BME280;61184;54.356;-8.550;2022-09-16T03:06:23;102055.74;;;23.12;33.07
73003;BME280;61184;54.356;-8.550;2022-09-16T03:08:49;102058.25;;;23.57;32.79
73003;BME280;61184;54.356;-8.550;2022-09-16T03:11:27;102063.37;;;23.71;32.57
73003;BME280;61184;54.356;-8.550;2022-09-16T03:13:45;102059.90;;;23.50;32.87
73003;BME280;61184;54.356;-8.550;2022-09-16T03:16:08;102057.23;;;23.54;32.80
73003;BME280;61184;54.356;-8.550;2022-09-16T03:18:45;102056.33;;;23.34;32.74
73003;BME280;61184;54.356;-8.550;2022-09-16T03:20:59;102056.99;;;23.61;32.65
73003;BME280;61184;54.356;-8.550;2022-09-16T03:23:28;102058.26;;;23.47;32.86
73003;BME280;61184;54.356;-8.550;2022-09-16T03:25:53;102058.99;;;23.61;32.61
73003;BME280;61184;54.356;-8.550;2022-09-16T03:28:14;102063.82;;;23.75;32.49
73003;BME280;61184;54.356;-8.550;2022-09-16T03:30:41;102065.35;;;23.06;33.35
73003;BME280;61184;54.356;-8.550;2022-09-16T03:33:05;102064.17;;;23.01;33.38
73003;BME280;61184;54.356;-8.550;2022-09-16T03:35:31;102063.27;;;23.41;32.91
73003;BME280;61184;54.356;-8.550;2022-09-16T03:37:54;102064.46;;;23.60;32.62
73003;BME280;61184;54.356;-8.550;2022-09-16T03:40:19;102067.85;;;23.64;32.84
73003;BME280;61184;54.356;-8.550;2022-09-16T03:42:44;102069.02;;;23.74;32.65
73003;BME280;61184;54.356;-8.550;2022-09-16T03:45:14;102067.85;;;23.50;32.65
73003;BME280;61184;54.356;-8.550;2022-09-16T03:47:35;102073.70;;;23.28;33.30
73003;BME280;61184;54.356;-8.550;2022-09-16T03:50:00;102076.76;;;23.17;33.12
73003;BME280;61184;54.356;-8.550;2022-09-16T03:52:26;102076.36;;;23.26;32.96
73003;BME280;61184;54.356;-8.550;2022-09-16T03:54:52;102076.41;;;23.97;32.66
73003;BME280;61184;54.356;-8.550;2022-09-16T03:57:17;102085.32;;;23.81;32.85
73003;BME280;61184;54.356;-8.550;2022-09-16T03:59:42;102088.34;;;23.21;33.02
73003;BME280;61184;54.356;-8.550;2022-09-16T04:02:07;102080.75;;;23.31;32.90
73003;BME280;61184;54.356;-8.550;2022-09-16T04:04:33;102073.47;;;23.39;32.74
73003;BME280;61184;54.356;-8.550;2022-09-16T04:06:59;102074.44;;;23.31;32.87
73003;BME280;61184;54.356;-8.550;2022-09-16T04:09:24;102078.75;;;23.02;33.12
73003;BME280;61184;54.356;-8.550;2022-09-16T04:11:49;102081.05;;;22.97;33.25
73003;BME280;61184;54.356;-8.550;2022-09-16T04:14:15;102078.40;;;23.26;32.79
73003;BME280;61184;54.356;-8.550;2022-09-16T04:16:42;102077.87;;;23.03;33.10
73003;BME280;61184;54.356;-8.550;2022-09-16T04:19:06;102077.80;;;23.74;32.21
73003;BME280;61184;54.356;-8.550;2022-09-16T04:21:31;102080.18;;;23.59;32.65
73003;BME280;61184;54.356;-8.550;2022-09-16T04:23:56;102085.51;;;22.92;33.22
73003;BME280;61184;54.356;-8.550;2022-09-16T04:26:22;102086.61;;;23.48;32.85
73003;BME280;61184;54.356;-8.550;2022-09-16T04:28:47;102085.86;;;23.36;32.97
73003;BME280;61184;54.356;-8.550;2022-09-16T04:31:14;102080.16;;;23.43;32.56
73003;BME280;61184;54.356;-8.550;2022-09-16T04:33:41;102085.68;;;23.33;32.97
73003;BME280;61184;54.356;-8.550;2022-09-16T04:36:05;102083.97;;;23.36;32.60
73003;BME280;61184;54.356;-8.550;2022-09-16T04:38:30;102085.79;;;23.20;32.76
73003;BME280;61184;54.356;-8.550;2022-09-16T04:40:59;102084.44;;;23.86;32.23
73003;BME280;61184;54.356;-8.550;2022-09-16T04:43:20;102092.08;;;23.00;33.08
73003;BME280;61184;54.356;-8.550;2022-09-16T04:45:46;102099.58;;;23.27;32.68
73003;BME280;61184;54.356;-8.550;2022-09-16T04:48:11;102099.29;;;23.20;32.82
73003;BME280;61184;54.356;-8.550;2022-09-16T04:50:36;102105.95;;;22.91;33.15
73003;BME280;61184;54.356;-8.550;2022-09-16T04:53:02;102107.86;;;23.53;32.32
73003;BME280;61184;54.356;-8.550;2022-09-16T04:55:27;102110.37;;;23.07;32.85
73003;BME280;61184;54.356;-8.550;2022-09-16T04:57:52;102105.63;;;23.71;32.02
73003;BME280;61184;54.356;-8.550;2022-09-16T05:00:18;102103.40;;;23.36;32.80
73003;BME280;61184;54.356;-8.550;2022-09-16T05:02:44;102101.16;;;23.14;33.37
73003;BME280;61184;54.356;-8.550;2022-09-16T05:05:09;102098.55;;;23.32;32.82
73003;BME280;61184;54.356;-8.550;2022-09-16T05:07:34;102094.68;;;23.71;31.96
73003;BME280;61184;54.356;-8.550;2022-09-16T05:10:00;102099.71;;;23.11;32.76
73003;BME280;61184;54.356;-8.550;2022-09-16T05:12:25;102102.35;;;23.32;32.48
73003;BME280;61184;54.356;-8.550;2022-09-16T05:14:50;102101.49;;;23.11;32.71
73003;BME280;61184;54.356;-8.550;2022-09-16T05:17:16;102106.96;;;23.24;32.52
73003;BME280;61184;54.356;-8.550;2022-09-16T05:19:41;102104.78;;;23.47;32.56
73003;BME280;61184;54.356;-8.550;2022-09-16T05:22:07;102104.09;;;23.72;32.56
73003;BME280;61184;54.356;-8.550;2022-09-16T05:24:33;102097.99;;;23.80;31.79
73003;BME280;61184;54.356;-8.550;2022-09-16T05:26:58;102103.64;;;23.46;32.16
73003;BME280;61184;54.356;-8.550;2022-09-16T05:29:23;102111.84;;;23.59;32.67
73003;BME280;61184;54.356;-8.550;2022-09-16T05:31:48;102114.31;;;23.17;32.58
73003;BME280;61184;54.356;-8.550;2022-09-16T05:34:16;102114.64;;;23.30;32.43
73003;BME280;61184;54.356;-8.550;2022-09-16T05:36:41;102120.16;;;23.18;32.50
73003;BME280;61184;54.356;-8.550;2022-09-16T05:39:05;102116.37;;;24.07;31.98
73003;BME280;61184;54.356;-8.550;2022-09-16T05:41:30;102117.34;;;23.31;32.34
73003;BME280;61184;54.356;-8.550;2022-09-16T05:43:57;102120.11;;;22.91;32.87
73003;BME280;61184;54.356;-8.550;2022-09-16T05:46:22;102116.09;;;23.79;32.02
73003;BME280;61184;54.356;-8.550;2022-09-16T05:48:47;102122.25;;;23.51;32.05
73003;BME280;61184;54.356;-8.550;2022-09-16T05:51:14;102127.17;;;22.79;33.02
73003;BME280;61184;54.356;-8.550;2022-09-16T05:53:37;102127.44;;;23.46;32.14
73003;BME280;61184;54.356;-8.550;2022-09-16T05:56:04;102129.32;;;23.55;31.98
73003;BME280;61184;54.356;-8.550;2022-09-16T05:58:30;102130.03;;;23.72;32.29
73003;BME280;61184;54.356;-8.550;2022-09-16T06:00:59;102133.67;;;23.95;31.76
73003;BME280;61184;54.356;-8.550;2022-09-16T06:03:19;102133.33;;;24.04;31.92
73003;BME280;61184;54.356;-8.550;2022-09-16T06:05:45;102132.73;;;23.88;32.14
73003;BME280;61184;54.356;-8.550;2022-09-16T06:08:10;102132.70;;;23.24;32.34
73003;BME280;61184;54.356;-8.550;2022-09-16T06:10:37;102130.13;;;23.62;32.16
73003;BME280;61184;54.356;-8.550;2022-09-16T06:13:01;102135.06;;;23.25;32.30
73003;BME280;61184;54.356;-8.550;2022-09-16T06:15:26;102142.65;;;23.30;32.24
73003;BME280;61184;54.356;-8.550;2022-09-16T06:17:53;102142.74;;;24.02;31.90
73003;BME280;61184;54.356;-8.550;2022-09-16T06:20:17;102142.18;;;23.20;32.37
73003;BME280;61184;54.356;-8.550;2022-09-16T06:22:43;102144.84;;;23.40;32.11
73003;BME280;61184;54.356;-8.550;2022-09-16T06:25:08;102145.31;;;24.00;32.02
73003;BME280;61184;54.356;-8.550;2022-09-16T06:27:33;102146.32;;;23.70;32.08
73003;BME280;61184;54.356;-8.550;2022-09-16T06:29:59;102150.10;;;23.38;32.29
73003;BME280;61184;54.356;-8.550;2022-09-16T06:32:24;102154.15;;;22.63;34.03
73003;BME280;61184;54.356;-8.550;2022-09-16T06:34:50;102162.32;;;22.51;33.93
73003;BME280;61184;54.356;-8.550;2022-09-16T06:37:15;102167.82;;;23.54;32.87
73003;BME280;61184;54.356;-8.550;2022-09-16T06:39:41;102165.88;;;23.82;32.45
73003;BME280;61184;54.356;-8.550;2022-09-16T06:42:06;102162.03;;;23.67;32.57
73003;BME280;61184;54.356;-8.550;2022-09-16T06:44:31;102158.02;;;23.46;32.53
73003;BME280;61184;54.356;-8.550;2022-09-16T06:46:57;102165.38;;;23.36;32.64
73003;BME280;61184;54.356;-8.550;2022-09-16T06:49:22;102171.00;;;23.22;32.83
73003;BME280;61184;54.356;-8.550;2022-09-16T06:51:48;102167.53;;;23.12;33.29
73003;BME280;61184;54.356;-8.550;2022-09-16T06:54:13;102165.23;;;23.67;32.58
73003;BME280;61184;54.356;-8.550;2022-09-16T06:56:39;102172.07;;;22.88;32.99
73003;BME280;61184;54.356;-8.550;2022-09-16T06:59:04;102169.69;;;23.53;32.52
73003;BME280;61184;54.356;-8.550;2022-09-16T07:01:30;102174.64;;;22.81;33.09
73003;BME280;61184;54.356;-8.550;2022-09-16T07:03:56;102178.86;;;23.03;33.14
73003;BME280;61184;54.356;-8.550;2022-09-16T07:06:21;102177.16;;;22.58;33.74
73003;BME280;61184;54.356;-8.550;2022-09-16T07:08:47;102178.59;;;22.96;33.22
73003;BME280;61184;54.356;-8.550;2022-09-16T07:11:13;102178.09;;;23.01;33.51
73003;BME280;61184;54.356;-8.550;2022-09-16T07:13:37;102182.42;;;22.96;33.23
73003;BME280;61184;54.356;-8.550;2022-09-16T07:16:04;102187.35;;;22.83;33.12
73003;BME280;61184;54.356;-8.550;2022-09-16T07:18:28;102185.60;;;23.01;33.21
73003;BME280;61184;54.356;-8.550;2022-09-16T07:20:59;102183.24;;;23.02;33.16
73003;BME280;61184;54.356;-8.550;2022-09-16T07:23:18;102190.60;;;22.60;33.10
73003;BME280;61184;54.356;-8.550;2022-09-16T07:25:44;102188.20;;;22.91;33.26
73003;BME280;61184;54.356;-8.550;2022-09-16T07:28:09;102187.47;;;23.11;32.98
73003;BME280;61184;54.356;-8.550;2022-09-16T07:30:35;102192.32;;;23.41;32.86
73003;BME280;61184;54.356;-8.550;2022-09-16T07:33:00;102195.21;;;23.07;33.01
73003;BME280;61184;54.356;-8.550;2022-09-16T07:35:26;102201.06;;;23.19;32.82
73003;BME280;61184;54.356;-8.550;2022-09-16T07:37:51;102205.59;;;23.27;32.71
73003;BME280;61184;54.356;-8.550;2022-09-16T07:40:17;102206.18;;;23.30;32.68
73003;BME280;61184;54.356;-8.550;2022-09-16T07:42:42;102207.45;;;23.44;32.75
73003;BME280;61184;54.356;-8.550;2022-09-16T07:45:08;102207.00;;;23.02;32.65
73003;BME280;61184;54.356;-8.550;2022-09-16T07:47:33;102209.71;;;23.21;32.70
73003;BME280;61184;54.356;-8.550;2022-09-16T07:49:58;102205.86;;;23.59;32.49
73003;BME280;61184;54.356;-8.550;2022-09-16T07:52:24;102206.34;;;23.02;32.64
73003;BME280;61184;54.356;-8.550;2022-09-16T07:54:49;102212.61;;;22.96;32.73
73003;BME280;61184;54.356;-8.550;2022-09-16T07:57:14;102212.54;;;23.38;32.53
73003;BME280;61184;54.356;-8.550;2022-09-16T07:59:40;102219.59;;;23.13;32.58
73003;BME280;61184;54.356;-8.550;2022-09-16T08:02:05;102221.99;;;23.64;32.55
73003;BME280;61184;54.356;-8.550;2022-09-16T08:04:31;102229.71;;;23.30;32.66
73003;BME280;61184;54.356;-8.550;2022-09-16T08:06:57;102230.63;;;23.14;32.54
73003;BME280;61184;54.356;-8.550;2022-09-16T08:09:22;102232.23;;;23.18;32.48
73003;BME280;61184;54.356;-8.550;2022-09-16T08:11:52;102232.68;;;23.54;32.61
73003;BME280;61184;54.356;-8.550;2022-09-16T08:14:12;102229.74;;;23.20;32.40
73003;BME280;61184;54.356;-8.550;2022-09-16T08:16:38;102232.48;;;23.31;32.50
73003;BME280;61184;54.356;-8.550;2022-09-16T08:19:03;102233.38;;;23.40;32.07
73003;BME280;61184;54.356;-8.550;2022-09-16T08:21:29;102239.32;;;23.42;32.28
73003;BME280;61184;54.356;-8.550;2022-09-16T08:23:55;102244.76;;;23.08;32.40
73003;BME280;61184;54.356;-8.550;2022-09-16T08:26:21;102252.46;;;23.21;32.19
73003;BME280;61184;54.356;-8.550;2022-09-16T08:28:46;102268.12;;;23.27;32.11
73003;BME280;61184;54.356;-8.550;2022-09-16T08:31:11;102271.88;;;23.59;32.30
73003;BME280;61184;54.356;-8.550;2022-09-16T08:33:38;102273.08;;;23.24;32.13
73003;BME280;61184;54.356;-8.550;2022-09-16T08:36:04;102274.20;;;22.88;32.58
73003;BME280;61184;54.356;-8.550;2022-09-16T08:38:27;102280.44;;;23.18;32.46
73003;BME280;61184;54.356;-8.550;2022-09-16T08:40:56;102283.12;;;23.03;32.33
73003;BME280;61184;54.356;-8.550;2022-09-16T08:43:22;102289.52;;;22.98;32.39
73003;BME280;61184;54.356;-8.550;2022-09-16T08:45:48;102288.23;;;23.23;32.37
73003;BME280;61184;54.356;-8.550;2022-09-16T08:48:20;102287.79;;;23.06;32.26
73003;BME280;61184;54.356;-8.550;2022-09-16T08:50:38;102285.81;;;23.02;32.31
73003;BME280;61184;54.356;-8.550;2022-09-16T08:53:02;102286.87;;;23.18;32.40
73003;BME280;61184;54.356;-8.550;2022-09-16T08:55:31;102285.40;;;23.07;32.23
73003;BME280;61184;54.356;-8.550;2022-09-16T08:57:55;102284.70;;;23.52;32.25
73003;BME280;61184;54.356;-8.550;2022-09-16T09:00:17;102287.36;;;23.26;32.31
73003;BME280;61184;54.356;-8.550;2022-09-16T09:02:47;102291.48;;;23.67;32.09
73003;BME280;61184;54.356;-8.550;2022-09-16T09:05:15;102298.05;;;23.14;32.46
73003;BME280;61184;54.356;-8.550;2022-09-16T09:07:39;102300.33;;;23.53;32.28
73003;BME280;61184;54.356;-8.550;2022-09-16T09:10:05;102302.69;;;23.66;32.15
73003;BME280;61184;54.356;-8.550;2022-09-16T09:12:29;102305.08;;;23.02;32.38
73003;BME280;61184;54.356;-8.550;2022-09-16T09:15:00;102299.91;;;23.32;32.30
73003;BME280;61184;54.356;-8.550;2022-09-16T09:17:22;102301.73;;;23.13;32.24
73003;BME280;61184;54.356;-8.550;2022-09-16T09:19:50;102300.65;;;23.18;32.20
73003;BME280;61184;54.356;-8.550;2022-09-16T09:22:12;102305.86;;;23.77;32.08
73003;BME280;61184;54.356;-8.550;2022-09-16T09:24:42;102303.54;;;23.67;32.20
73003;BME280;61184;54.356;-8.550;2022-09-16T09:27:00;102305.23;;;23.80;32.08
73003;BME280;61184;54.356;-8.550;2022-09-16T09:29:31;102304.99;;;23.25;32.16
73003;BME280;61184;54.356;-8.550;2022-09-16T09:31:54;102302.26;;;23.55;32.10
73003;BME280;61184;54.356;-8.550;2022-09-16T09:34:24;102302.61;;;23.34;32.05
73003;BME280;61184;54.356;-8.550;2022-09-16T09:36:48;102304.22;;;23.27;32.15
73003;BME280;61184;54.356;-8.550;2022-09-16T09:39:14;102308.76;;;23.42;31.96
73003;BME280;61184;54.356;-8.550;2022-09-16T09:41:31;102311.69;;;23.40;31.98
73003;BME280;61184;54.356;-8.550;2022-09-16T09:43:59;102313.49;;;23.49;32.19
73003;BME280;61184;54.356;-8.550;2022-09-16T09:46:24;102314.52;;;23.24;32.14
73003;BME280;61184;54.356;-8.550;2022-09-16T09:48:47;102316.15;;;23.29;32.02
73003;BME280;61184;54.356;-8.550;2022-09-16T09:51:15;102321.05;;;23.27;32.26
73003;BME280;61184;54.356;-8.550;2022-09-16T09:53:39;102318.84;;;23.22;31.89
73003;BME280;61184;54.356;-8.550;2022-09-16T09:56:11;102323.60;;;23.60;31.91
73003;BME280;61184;54.356;-8.550;2022-09-16T09:58:29;102328.50;;;23.15;31.81
73003;BME280;61184;54.356;-8.550;2022-09-16T10:00:52;102329.02;;;23.19;31.65
73003;BME280;61184;54.356;-8.550;2022-09-16T10:03:18;102331.81;;;23.28;31.47
73003;BME280;61184;54.356;-8.550;2022-09-16T10:05:43;102333.94;;;23.27;31.37
73003;BME280;61184;54.356;-8.550;2022-09-16T10:08:16;102336.39;;;23.34;31.21
73003;BME280;61184;54.356;-8.550;2022-09-16T10:10:33;102337.20;;;23.55;31.14
73003;BME280;61184;54.356;-8.550;2022-09-16T10:13:05;102344.66;;;23.27;31.38
73003;BME280;61184;54.356;-8.550;2022-09-16T10:15:27;102350.12;;;23.80;30.99
73003;BME280;61184;54.356;-8.550;2022-09-16T10:17:51;102344.93;;;23.38;30.78
73003;BME280;61184;54.356;-8.550;2022-09-16T10:20:21;102347.68;;;23.36;30.86
73003;BME280;61184;54.356;-8.550;2022-09-16T10:22:51;102347.35;;;23.68;30.85
73003;BME280;61184;54.356;-8.550;2022-09-16T10:27:33;102345.04;;;23.68;31.08
73003;BME280;61184;54.356;-8.550;2022-09-16T10:30:03;102341.64;;;23.12;31.08
73003;BME280;61184;54.356;-8.550;2022-09-16T10:32:22;102339.36;;;23.13;31.03
73003;BME280;61184;54.356;-8.550;2022-09-16T10:34:47;102336.68;;;23.88;30.60
73003;BME280;61184;54.356;-8.550;2022-09-16T10:37:16;102336.76;;;23.77;30.65
73003;BME280;61184;54.356;-8.550;2022-09-16T10:39:39;102343.72;;;23.15;30.77
73003;BME280;61184;54.356;-8.550;2022-09-16T10:42:13;102342.47;;;23.49;30.56
73003;BME280;61184;54.356;-8.550;2022-09-16T10:44:31;102342.11;;;23.44;30.66
73003;BME280;61184;54.356;-8.550;2022-09-16T10:46:59;102342.81;;;23.16;30.64
73003;BME280;61184;54.356;-8.550;2022-09-16T10:49:24;102339.63;;;23.13;30.64
73003;BME280;61184;54.356;-8.550;2022-09-16T10:51:45;102344.90;;;23.37;30.68
73003;BME280;61184;54.356;-8.550;2022-09-16T10:56:45;102349.97;;;23.81;30.39
73003;BME280;61184;54.356;-8.550;2022-09-16T10:59:03;102346.76;;;23.30;30.43
73003;BME280;61184;54.356;-8.550;2022-09-16T11:01:36;102342.08;;;23.35;30.35
73003;BME280;61184;54.356;-8.550;2022-09-16T11:06:30;102340.95;;;23.67;30.25
73003;BME280;61184;54.356;-8.550;2022-09-16T11:08:53;102344.35;;;23.98;30.14
73003;BME280;61184;54.356;-8.550;2022-09-16T11:11:14;102348.42;;;23.26;30.33
73003;BME280;61184;54.356;-8.550;2022-09-16T11:13:43;102353.15;;;23.67;29.96
73003;BME280;61184;54.356;-8.550;2022-09-16T11:16:14;102352.10;;;23.76;29.70
73003;BME280;61184;54.356;-8.550;2022-09-16T11:18:38;102356.36;;;23.39;29.72
73003;BME280;61184;54.356;-8.550;2022-09-16T11:21:02;102354.42;;;23.33;29.67
73003;BME280;61184;54.356;-8.550;2022-09-16T11:23:29;102351.56;;;23.36;29.81
73003;BME280;61184;54.356;-8.550;2022-09-16T11:25:49;102356.62;;;23.43;29.80
73003;BME280;61184;54.356;-8.550;2022-09-16T11:28:28;102359.84;;;23.57;29.57
73003;BME280;61184;54.356;-8.550;2022-09-16T11:30:39;102357.13;;;23.21;29.67
73003;BME280;61184;54.356;-8.550;2022-09-16T11:33:06;102356.64;;;23.34;29.48
73003;BME280;61184;54.356;-8.550;2022-09-16T11:35:34;102353.54;;;23.30;29.48
73003;BME280;61184;54.356;-8.550;2022-09-16T11:37:56;102348.93;;;23.91;29.27
73003;BME280;61184;54.356;-8.550;2022-09-16T11:40:24;102356.05;;;23.18;29.54
73003;BME280;61184;54.356;-8.550;2022-09-16T11:42:41;102364.40;;;23.20;29.45
73003;BME280;61184;54.356;-8.550;2022-09-16T11:45:21;102370.06;;;23.66;29.24
73003;BME280;61184;54.356;-8.550;2022-09-16T11:47:41;102370.54;;;23.22;29.57
73003;BME280;61184;54.356;-8.550;2022-09-16T11:52:34;102374.45;;;23.61;29.95
73003;BME280;61184;54.356;-8.550;2022-09-16T11:55:01;102376.73;;;23.57;29.84
73003;BME280;61184;54.356;-8.550;2022-09-16T11:57:17;102380.79;;;23.62;29.85
73003;BME280;61184;54.356;-8.550;2022-09-16T11:59:54;102382.44;;;23.28;30.01
73003;BME280;61184;54.356;-8.550;2022-09-16T12:02:11;102380.86;;;23.46;29.87
73003;BME280;61184;54.356;-8.550;2022-09-16T12:04:40;102378.27;;;23.59;30.29
73003;BME280;61184;54.356;-8.550;2022-09-16T12:06:59;102378.96;;;23.36;30.04
73003;BME280;61184;54.356;-8.550;2022-09-16T12:09:25;102376.46;;;23.00;30.43
73003;BME280;61184;54.356;-8.550;2022-09-16T12:11:49;102376.16;;;23.21;30.20
73003;BME280;61184;54.356;-8.550;2022-09-16T12:14:14;102372.96;;;23.33;30.00
73003;BME280;61184;54.356;-8.550;2022-09-16T12:16:41;102376.63;;;23.54;29.70
73003;BME280;61184;54.356;-8.550;2022-09-16T12:19:09;102375.79;;;23.51;29.92
73003;BME280;61184;54.356;-8.550;2022-09-16T12:21:31;102378.96;;;23.30;29.77
73003;BME280;61184;54.356;-8.550;2022-09-16T12:23:56;102380.20;;;23.21;29.83
73003;BME280;61184;54.356;-8.550;2022-09-16T12:26:20;102380.48;;;23.31;29.68
73003;BME280;61184;54.356;-8.550;2022-09-16T12:28:45;102380.61;;;23.36;29.60
73003;BME280;61184;54.356;-8.550;2022-09-16T12:31:14;102379.11;;;23.65;29.49
73003;BME280;61184;54.356;-8.550;2022-09-16T12:33:38;102375.98;;;23.84;29.49
73003;BME280;61184;54.356;-8.550;2022-09-16T12:36:04;102375.22;;;23.57;29.51
73003;BME280;61184;54.356;-8.550;2022-09-16T12:38:25;102372.82;;;23.64;29.43
73003;BME280;61184;54.356;-8.550;2022-09-16T12:41:02;102372.39;;;23.32;29.51